Time;durP1;ratioP1;P1;durP2;ratioP2;P2;SDS_P1;SDS_P2;PMS_P1;PMS_P2;Temp;Humidity;BMP_temperature;BMP_pressure;BME280_temperature;BME280_humidity;BME280_pressure;Samples;Min_cycle;Max_cycle;Signal;HPM_P1;HPM_P2
2023/10/30 00:01:42;;;;;;;11.50;4.17;;;12.80;25.70;;;;;;5025556;28;20479;-63
2023/10/30 00:04:09;;;;;;;14.27;5.83;;;12.80;25.70;;;;;;5024335;28;20920;-63
2023/10/30 00:06:36;;;;;;;9.97;6.00;;;12.80;25.50;;;;;;5022380;28;20463;-63
2023/10/30 00:09:03;;;;;;;11.13;6.30;;;12.70;25.60;;;;;;5027583;28;20483;-64
2023/10/30 00:11:29;;;;;;;10.63;6.40;;;12.70;26.00;;;;;;5024183;28;20486;-63
2023/10/30 00:13:56;;;;;;;10.80;6.70;;;12.70;25.30;;;;;;5028662;28;20538;-63
2023/10/30 00:16:24;;;;;;;10.80;6.50;;;12.70;25.50;;;;;;5024486;28;20448;-63
2023/10/30 00:18:51;;;;;;;10.47;5.90;;;12.60;25.70;;;;;;5024559;28;20476;-63
2023/10/30 00:21:17;;;;;;;7.47;4.77;;;12.60;25.70;;;;;;5025833;28;20470;-63
2023/10/30 00:23:45;;;;;;;8.40;4.77;;;12.60;25.80;;;;;;5023399;28;21148;-63
2023/10/30 00:26:12;;;;;;;7.70;5.37;;;12.50;26.10;;;;;;5025515;28;20521;-63
2023/10/30 00:28:39;;;;;;;7.10;4.30;;;12.50;26.10;;;;;;5026645;28;20479;-63
2023/10/30 00:31:05;;;;;;;7.03;4.47;;;12.60;25.90;;;;;;5027443;28;20479;-63
2023/10/30 00:33:33;;;;;;;7.47;4.77;;;12.50;26.00;;;;;;5025253;28;20588;-63
2023/10/30 00:36:00;;;;;;;9.10;4.67;;;12.50;26.20;;;;;;5024969;28;21061;-63
2023/10/30 00:38:27;;;;;;;8.63;5.17;;;12.50;26.30;;;;;;5022526;28;20470;-63
2023/10/30 00:40:53;;;;;;;7.97;5.73;;;12.50;26.10;;;;;;5023605;28;20454;-64
2023/10/30 00:43:20;;;;;;;7.00;5.30;;;12.50;26.40;;;;;;5027602;28;20459;-64
2023/10/30 00:45:47;;;;;;;6.73;4.60;;;12.40;26.30;;;;;;5022945;28;20487;-64
2023/10/30 00:48:13;;;;;;;8.40;5.80;;;12.40;26.40;;;;;;5020732;28;20481;-64
2023/10/30 00:50:41;;;;;;;8.03;5.00;;;12.40;26.60;;;;;;5025172;28;20884;-64
2023/10/30 00:53:08;;;;;;;6.97;5.30;;;12.40;27.00;;;;;;5020457;28;20468;-64
2023/10/30 00:55:37;;;;;;;10.57;6.37;;;12.40;27.20;;;;;;5022962;28;20494;-64
2023/10/30 00:58:07;;;;;;;8.57;6.10;;;12.40;27.40;;;;;;5023453;28;21032;-64
2023/10/30 01:00:34;;;;;;;7.77;5.87;;;12.40;27.40;;;;;;5023307;28;20962;-64
2023/10/30 01:03:00;;;;;;;11.20;5.47;;;12.40;27.40;;;;;;5023430;28;21140;-64
2023/10/30 01:05:27;;;;;;;10.40;5.97;;;12.40;27.60;;;;;;5022893;28;20474;-64
2023/10/30 01:07:55;;;;;;;9.40;5.43;;;12.30;27.50;;;;;;5021726;28;20482;-64
2023/10/30 01:10:22;;;;;;;11.87;5.60;;;12.30;27.30;;;;;;5022942;28;20454;-64
2023/10/30 01:12:48;;;;;;;8.63;5.70;;;12.30;27.40;;;;;;5026336;28;20475;-64
2023/10/30 01:15:17;;;;;;;8.20;6.00;;;12.20;27.40;;;;;;5025258;28;20490;-64
2023/10/30 01:17:44;;;;;;;15.20;6.90;;;12.20;27.40;;;;;;5025018;28;20466;-64
2023/10/30 01:20:11;;;;;;;8.40;6.10;;;12.20;27.70;;;;;;5024108;28;20591;-64
2023/10/30 01:22:38;;;;;;;11.20;6.70;;;12.10;27.70;;;;;;5023191;28;20844;-64
2023/10/30 01:25:07;;;;;;;8.80;6.37;;;12.10;27.60;;;;;;5025273;28;20570;-64
2023/10/30 01:27:34;;;;;;;7.43;5.97;;;12.10;27.80;;;;;;5023942;28;20514;-64
2023/10/30 01:30:01;;;;;;;11.90;7.43;;;12.00;28.00;;;;;;5021518;28;20463;-64
2023/10/30 01:32:27;;;;;;;9.43;6.13;;;12.00;27.70;;;;;;5024346;28;20483;-64
2023/10/30 01:34:54;;;;;;;8.70;6.47;;;12.00;27.90;;;;;;5025092;28;20835;-64
2023/10/30 01:37:21;;;;;;;10.07;6.90;;;11.90;28.00;;;;;;5022844;28;20463;-64
2023/10/30 01:39:48;;;;;;;9.03;6.40;;;11.90;28.00;;;;;;5022779;28;20459;-64
2023/10/30 01:42:17;;;;;;;8.40;6.43;;;11.90;28.40;;;;;;5021868;28;20479;-64
2023/10/30 01:44:57;;;;;;;11.27;6.73;;;11.80;28.50;;;;;;5027128;28;20478;-63
2023/10/30 01:47:24;;;;;;;8.73;6.53;;;11.80;28.50;;;;;;5020351;28;20460;-64
2023/10/30 01:49:51;;;;;;;14.73;7.10;;;11.70;28.30;;;;;;5024271;28;21150;-63
2023/10/30 01:52:19;;;;;;;8.37;6.77;;;11.70;28.50;;;;;;5022859;28;20616;-64
2023/10/30 01:54:47;;;;;;;9.27;6.80;;;11.70;28.40;;;;;;5025161;28;20494;-64
2023/10/30 01:57:18;;;;;;;10.33;7.63;;;11.70;28.50;;;;;;5024980;28;20533;-63
2023/10/30 01:59:46;;;;;;;9.77;7.00;;;11.70;28.60;;;;;;5022201;28;20990;-63
2023/10/30 02:02:13;;;;;;;9.80;7.47;;;11.60;28.40;;;;;;5024798;28;20482;-63
2023/10/30 02:04:40;;;;;;;9.07;6.70;;;11.60;28.80;;;;;;5020931;28;20510;-64
2023/10/30 02:07:07;;;;;;;12.20;7.40;;;11.60;28.70;;;;;;5026886;28;20473;-63
2023/10/30 02:09:34;;;;;;;12.23;8.30;;;11.60;29.00;;;;;;5024944;28;20486;-63
2023/10/30 02:12:01;;;;;;;9.53;7.30;;;11.60;29.10;;;;;;5021381;28;20880;-63
2023/10/30 02:14:29;;;;;;;10.53;7.10;;;11.60;29.20;;;;;;5024070;28;20890;-63
2023/10/30 02:16:55;;;;;;;9.40;6.37;;;11.60;29.40;;;;;;5020049;28;20474;-63
2023/10/30 02:19:24;;;;;;;9.90;7.10;;;11.60;29.20;;;;;;5022398;28;20880;-64
2023/10/30 02:21:52;;;;;;;10.03;7.20;;;11.50;29.20;;;;;;5022613;28;20961;-63
2023/10/30 02:24:19;;;;;;;12.83;6.97;;;11.50;29.50;;;;;;5019869;28;20483;-63
2023/10/30 02:26:47;;;;;;;8.80;6.97;;;11.50;29.50;;;;;;5025036;28;20549;-63
2023/10/30 02:29:14;;;;;;;10.77;7.70;;;11.50;29.70;;;;;;5027326;28;20489;-65
2023/10/30 02:31:41;;;;;;;8.70;6.70;;;11.50;30.00;;;;;;5029241;28;20537;-63
2023/10/30 02:34:08;;;;;;;12.47;7.10;;;11.40;29.90;;;;;;5023441;28;20463;-63
2023/10/30 02:36:34;;;;;;;8.63;7.07;;;11.50;30.10;;;;;;5028611;28;20463;-63
2023/10/30 02:39:02;;;;;;;8.30;6.60;;;11.40;30.10;;;;;;5022734;28;20462;-63
2023/10/30 02:41:31;;;;;;;10.60;6.07;;;11.40;30.20;;;;;;5023598;28;20463;-63
2023/10/30 02:44:00;;;;;;;10.73;6.30;;;11.40;30.10;;;;;;5029369;28;20469;-63
2023/10/30 02:46:26;;;;;;;9.00;6.53;;;11.40;30.10;;;;;;5029159;28;20465;-63
2023/10/30 02:48:53;;;;;;;8.73;6.33;;;11.40;30.10;;;;;;5027410;28;20489;-63
2023/10/30 02:51:20;;;;;;;8.10;6.30;;;11.40;29.90;;;;;;5024135;28;20490;-63
2023/10/30 02:53:47;;;;;;;8.87;6.80;;;11.40;29.90;;;;;;5026670;28;20458;-63
2023/10/30 02:56:13;;;;;;;11.30;7.80;;;11.40;29.90;;;;;;5029799;28;20527;-63
2023/10/30 02:58:40;;;;;;;8.60;5.90;;;11.40;30.20;;;;;;5022060;28;20490;-63
2023/10/30 03:01:08;;;;;;;10.20;7.77;;;11.40;30.20;;;;;;5019293;28;20475;-63
2023/10/30 03:03:35;;;;;;;9.27;7.70;;;11.40;30.20;;;;;;5022067;28;20456;-63
2023/10/30 03:06:02;;;;;;;12.37;9.20;;;11.40;30.40;;;;;;5028788;28;20898;-63
2023/10/30 03:08:29;;;;;;;10.80;8.33;;;11.40;30.30;;;;;;5029297;28;20822;-63
2023/10/30 03:10:55;;;;;;;12.93;10.70;;;11.40;30.70;;;;;;5026957;28;20463;-63
2023/10/30 03:13:23;;;;;;;17.83;10.90;;;11.40;31.00;;;;;;5018380;23;20481;-68
2023/10/30 03:15:50;;;;;;;12.93;10.33;;;11.50;31.20;;;;;;4979322;28;20495;-68
2023/10/30 03:18:18;;;;;;;13.33;9.73;;;11.50;31.40;;;;;;4983708;28;20472;-68
2023/10/30 03:20:44;;;;;;;11.07;8.67;;;11.50;32.10;;;;;;4986335;28;20550;-68
2023/10/30 03:23:11;;;;;;;19.30;9.30;;;11.50;31.40;;;;;;4988174;28;20476;-68
2023/10/30 03:25:38;;;;;;;39.63;10.57;;;11.50;31.40;;;;;;4980992;28;20606;-68
2023/10/30 03:28:05;;;;;;;26.20;9.50;;;11.50;31.60;;;;;;4984639;28;20469;-68
2023/10/30 03:30:34;;;;;;;25.80;9.10;;;11.50;31.50;;;;;;4986248;28;20475;-67
2023/10/30 03:33:01;;;;;;;19.43;7.57;;;11.50;31.30;;;;;;4985627;28;20976;-67
2023/10/30 03:35:29;;;;;;;62.40;10.37;;;11.50;31.30;;;;;;4984988;28;20527;-68
2023/10/30 03:37:56;;;;;;;13.60;7.90;;;11.50;31.50;;;;;;4982753;28;20469;-69
2023/10/30 03:40:23;;;;;;;14.10;8.10;;;11.50;31.30;;;;;;4983825;28;20457;-67
2023/10/30 03:42:49;;;;;;;31.13;10.20;;;11.50;31.30;;;;;;4982730;28;20484;-68
2023/10/30 03:45:16;;;;;;;21.90;8.00;;;11.50;31.20;;;;;;4987601;28;20961;-68
2023/10/30 03:47:43;;;;;;;43.50;10.13;;;11.50;31.20;;;;;;4987331;28;20457;-68
2023/10/30 03:50:12;;;;;;;125.17;13.00;;;11.60;31.20;;;;;;4984946;28;20567;-69
2023/10/30 03:52:41;;;;;;;73.13;10.17;;;11.50;31.40;;;;;;4985098;28;20468;-68
2023/10/30 03:55:08;;;;;;;29.80;8.87;;;11.50;31.60;;;;;;4987465;28;20507;-68
2023/10/30 03:57:35;;;;;;;39.77;9.70;;;11.50;31.70;;;;;;4988251;28;20465;-68
2023/10/30 04:00:02;;;;;;;39.67;8.70;;;11.50;31.50;;;;;;4985086;28;20454;-68
2023/10/30 04:02:29;;;;;;;26.10;7.90;;;11.50;31.50;;;;;;4981939;28;20516;-67
2023/10/30 04:04:56;;;;;;;17.57;8.47;;;11.50;31.60;;;;;;4984439;28;20484;-68
2023/10/30 04:07:24;;;;;;;24.23;9.30;;;11.50;31.60;;;;;;4987775;28;20548;-68
2023/10/30 04:09:53;;;;;;;24.80;8.70;;;11.40;31.40;;;;;;4986303;28;20497;-69
2023/10/30 04:12:20;;;;;;;30.83;9.67;;;11.40;31.50;;;;;;4985783;28;20523;-69
2023/10/30 04:14:47;;;;;;;34.70;10.30;;;11.40;31.30;;;;;;4988221;28;20508;-69
2023/10/30 04:17:14;;;;;;;23.83;9.60;;;11.40;31.30;;;;;;4989076;28;21088;-69
2023/10/30 04:19:40;;;;;;;24.57;8.83;;;11.40;31.50;;;;;;4987767;28;20474;-69
2023/10/30 04:22:07;;;;;;;15.10;10.20;;;11.40;31.70;;;;;;4988437;28;20469;-69
2023/10/30 04:24:34;;;;;;;14.13;10.10;;;11.40;31.60;;;;;;4987218;28;20481;-69
2023/10/30 04:27:02;;;;;;;15.20;9.90;;;11.40;31.70;;;;;;4989148;28;20461;-69
2023/10/30 04:29:29;;;;;;;15.97;9.83;;;11.40;31.90;;;;;;4984174;28;20484;-69
2023/10/30 04:31:56;;;;;;;12.40;11.03;;;11.40;31.80;;;;;;4985725;28;20473;-69
2023/10/30 04:34:23;;;;;;;28.70;11.80;;;11.40;31.70;;;;;;4989594;28;20495;-69
2023/10/30 04:36:50;;;;;;;67.63;13.90;;;11.40;31.60;;;;;;4983938;28;20470;-69
2023/10/30 04:39:17;;;;;;;16.60;11.27;;;11.40;31.80;;;;;;4988705;28;20461;-67
2023/10/30 04:41:43;;;;;;;16.77;10.53;;;11.40;31.80;;;;;;4981718;28;20519;-70
2023/10/30 04:44:12;;;;;;;25.30;11.00;;;11.40;31.90;;;;;;4984944;28;20496;-70
2023/10/30 04:46:38;;;;;;;28.10;10.90;;;11.50;32.00;;;;;;4985304;28;20471;-70
2023/10/30 04:49:05;;;;;;;48.17;12.00;;;11.50;32.10;;;;;;4984703;28;20504;-69
2023/10/30 04:51:32;;;;;;;23.27;11.77;;;11.40;32.00;;;;;;4985797;28;20493;-70
2023/10/30 04:53:58;;;;;;;23.70;11.70;;;11.50;32.30;;;;;;4983521;28;20469;-70
2023/10/30 04:56:25;;;;;;;80.07;13.93;;;11.40;32.00;;;;;;4985463;28;20542;-70
2023/10/30 04:58:52;;;;;;;14.20;11.10;;;11.40;32.20;;;;;;4987603;28;20471;-70
2023/10/30 05:01:20;;;;;;;104.43;16.47;;;11.40;32.20;;;;;;4983233;28;20472;-70
2023/10/30 05:03:47;;;;;;;19.53;11.50;;;11.40;32.00;;;;;;4986569;28;20480;-70
2023/10/30 05:06:13;;;;;;;18.90;11.80;;;11.30;32.10;;;;;;4982473;28;21022;-70
2023/10/30 05:08:40;;;;;;;27.83;12.40;;;11.30;32.30;;;;;;4985131;28;20874;-70
2023/10/30 05:11:07;;;;;;;44.97;13.30;;;11.30;32.30;;;;;;4981945;28;22936;-70
2023/10/30 05:13:34;;;;;;;39.63;13.87;;;11.30;32.60;;;;;;4981644;28;20476;-70
2023/10/30 05:16:01;;;;;;;22.07;12.10;;;11.30;32.70;;;;;;4975512;28;20532;-70
2023/10/30 05:18:30;;;;;;;47.33;13.20;;;11.20;32.70;;;;;;4983847;28;20489;-70
2023/10/30 05:20:57;;;;;;;39.27;11.93;;;11.20;32.70;;;;;;4986352;28;20461;-70
2023/10/30 05:23:24;;;;;;;41.47;12.13;;;11.20;32.70;;;;;;4984673;28;20501;-69
2023/10/30 05:25:51;;;;;;;57.80;12.40;;;11.20;32.90;;;;;;4981999;28;20495;-69
2023/10/30 05:28:17;;;;;;;139.40;14.73;;;11.20;32.90;;;;;;4979800;28;20472;-70
2023/10/30 05:30:44;;;;;;;52.10;12.30;;;11.10;32.80;;;;;;4984056;28;20491;-70
2023/10/30 05:33:11;;;;;;;58.03;12.37;;;11.10;32.90;;;;;;4994513;28;20851;-69
2023/10/30 05:35:39;;;;;;;72.27;12.03;;;11.10;32.80;;;;;;4993881;28;20485;-69
2023/10/30 05:38:06;;;;;;;63.90;12.60;;;11.10;33.00;;;;;;4986829;28;20468;-70
2023/10/30 05:40:32;;;;;;;26.17;10.10;;;11.10;32.90;;;;;;4982251;28;20511;-70
2023/10/30 05:42:59;;;;;;;23.73;10.40;;;11.00;32.90;;;;;;4977954;28;20552;-70
2023/10/30 05:45:26;;;;;;;64.57;11.20;;;11.00;32.90;;;;;;4981927;28;20480;-70
2023/10/30 05:47:53;;;;;;;28.23;9.70;;;10.90;33.00;;;;;;4980227;28;20484;-70
2023/10/30 05:50:20;;;;;;;19.77;8.87;;;10.80;32.80;;;;;;4982904;28;21015;-70
2023/10/30 05:52:48;;;;;;;28.07;8.60;;;10.80;32.70;;;;;;4984663;28;20469;-70
2023/10/30 05:55:15;;;;;;;13.13;8.03;;;10.80;32.60;;;;;;4984569;28;20488;-70
2023/10/30 05:57:45;;;;;;;17.83;7.40;;;10.70;32.50;;;;;;4980774;28;20465;-70
2023/10/30 06:00:12;;;;;;;32.67;7.97;;;10.70;32.40;;;;;;4983009;28;20482;-70
2023/10/30 06:02:39;;;;;;;19.03;6.80;;;10.60;32.30;;;;;;4979666;28;20466;-70
2023/10/30 06:05:08;;;;;;;27.57;6.87;;;10.60;32.20;;;;;;4989028;28;20480;-70
2023/10/30 06:07:35;;;;;;;28.13;7.30;;;10.50;32.20;;;;;;4986755;28;20547;-70
2023/10/30 06:10:04;;;;;;;43.37;8.43;;;10.40;32.10;;;;;;4983972;28;20476;-71
2023/10/30 06:12:31;;;;;;;17.77;6.27;;;10.40;32.00;;;;;;4984212;28;20468;-70
2023/10/30 06:14:58;;;;;;;10.03;5.57;;;10.40;31.90;;;;;;4981030;28;20499;-70
2023/10/30 06:17:24;;;;;;;10.50;6.10;;;10.30;31.90;;;;;;4984846;28;20492;-70
2023/10/30 06:19:51;;;;;;;7.47;5.80;;;10.30;31.80;;;;;;4989864;28;20465;-71
2023/10/30 06:22:18;;;;;;;7.40;5.60;;;10.30;31.70;;;;;;4990019;28;20487;-70
2023/10/30 06:24:45;;;;;;;9.27;7.33;;;10.20;31.70;;;;;;4990463;28;20958;-70
2023/10/30 06:27:13;;;;;;;11.20;9.53;;;10.20;31.80;;;;;;4989414;28;20468;-70
2023/10/30 06:29:40;;;;;;;12.23;7.27;;;10.30;31.80;;;;;;4991205;28;20481;-70
2023/10/30 06:32:07;;;;;;;12.90;9.93;;;10.30;31.60;;;;;;4988883;28;21098;-69
2023/10/30 06:34:34;;;;;;;16.93;7.40;;;10.30;31.60;;;;;;4988454;28;20508;-70
2023/10/30 06:37:01;;;;;;;15.87;6.57;;;10.40;31.40;;;;;;4985988;28;20464;-70
2023/10/30 06:39:28;;;;;;;36.53;7.30;;;10.50;31.20;;;;;;4991196;28;20464;-70
2023/10/30 06:41:56;;;;;;;39.30;6.53;;;10.60;30.80;;;;;;4987536;28;20457;-70
2023/10/30 06:44:24;;;;;;;33.43;5.80;;;10.70;30.70;;;;;;4985064;28;20496;-71
2023/10/30 06:46:51;;;;;;;7.30;5.27;;;10.70;30.40;;;;;;4990267;28;20472;-70
2023/10/30 06:49:18;;;;;;;6.83;5.07;;;10.70;30.10;;;;;;4990347;28;20495;-71
2023/10/30 06:51:45;;;;;;;19.50;8.43;;;10.80;30.00;;;;;;4990642;28;20460;-71
2023/10/30 06:54:12;;;;;;;12.67;5.33;;;10.90;29.60;;;;;;4985207;28;20484;-70
2023/10/30 06:56:38;;;;;;;18.20;5.20;;;11.00;29.40;;;;;;4990671;28;20460;-71
2023/10/30 06:59:05;;;;;;;18.33;4.80;;;11.10;29.10;;;;;;4986445;28;20892;-71
2023/10/30 07:01:42;;;;;;;14.97;5.40;;;11.20;28.70;;;;;;4989423;28;20479;-70
2023/10/30 07:04:09;;;;;;;10.70;4.63;;;11.30;28.30;;;;;;4984708;28;20460;-71
2023/10/30 07:06:36;;;;;;;6.77;4.50;;;11.40;27.50;;;;;;4991152;28;20484;-70
2023/10/30 07:09:02;;;;;;;9.20;4.90;;;11.50;27.50;;;;;;4988755;28;20957;-70
2023/10/30 07:11:29;;;;;;;7.97;4.00;;;11.70;27.20;;;;;;4986067;28;21356;-70
2023/10/30 07:13:56;;;;;;;11.30;4.17;;;12.00;26.60;;;;;;4987600;28;20552;-70
2023/10/30 07:16:23;;;;;;;6.10;4.37;;;12.20;25.90;;;;;;4987887;28;20461;-70
2023/10/30 07:18:51;;;;;;;10.60;4.23;;;12.30;25.10;;;;;;4986308;28;20452;-70
2023/10/30 07:21:18;;;;;;;12.27;4.90;;;12.50;24.60;;;;;;4986751;28;20457;-71
2023/10/30 07:23:44;;;;;;;9.10;4.40;;;12.90;24.20;;;;;;4985475;28;20457;-70
2023/10/30 07:26:11;;;;;;;7.47;3.63;;;13.10;23.10;;;;;;4989102;28;20481;-70
2023/10/30 07:28:38;;;;;;;10.43;3.37;;;13.40;22.30;;;;;;4988319;28;20472;-71
2023/10/30 07:31:05;;;;;;;14.17;4.43;;;13.50;21.50;;;;;;4989083;28;20469;-71
2023/10/30 07:33:31;;;;;;;13.83;4.10;;;13.70;20.50;;;;;;4988055;28;20471;-71
2023/10/30 07:36:01;;;;;;;5.60;3.83;;;14.00;20.20;;;;;;4986348;28;20484;-70
2023/10/30 07:38:27;;;;;;;5.83;3.60;;;14.30;19.90;;;;;;4981209;28;20556;-70
2023/10/30 07:40:56;;;;;;;7.47;4.07;;;14.60;18.90;;;;;;4984504;28;20485;-70
2023/10/30 07:43:23;;;;;;;5.20;3.87;;;14.80;18.00;;;;;;4984965;28;20460;-71
2023/10/30 07:45:50;;;;;;;5.87;3.97;;;15.10;17.90;;;;;;4986096;28;20489;-70
2023/10/30 07:48:17;;;;;;;15.67;4.90;;;15.40;17.20;;;;;;4984645;28;21274;-71
2023/10/30 07:50:44;;;;;;;7.87;4.93;;;15.80;16.30;;;;;;4989573;28;20489;-70
2023/10/30 07:53:14;;;;;;;8.03;4.87;;;16.20;15.60;;;;;;4980494;28;20461;-71
2023/10/30 07:55:41;;;;;;;5.70;4.10;;;16.60;14.70;;;;;;4980694;28;20482;-71
2023/10/30 07:58:09;;;;;;;5.33;4.00;;;17.10;13.70;;;;;;4982008;28;20553;-71
2023/10/30 08:00:38;;;;;;;5.90;4.60;;;17.40;12.70;;;;;;4979684;28;20474;-71
2023/10/30 08:03:05;;;;;;;6.50;4.67;;;17.40;12.00;;;;;;4964001;28;20470;-71
2023/10/30 08:05:32;;;;;;;6.13;4.63;;;17.60;11.80;;;;;;4963154;28;20497;-71
2023/10/30 08:07:59;;;;;;;6.20;5.07;;;17.70;11.00;;;;;;4967882;28;20464;-71
2023/10/30 08:10:27;;;;;;;6.67;4.70;;;17.80;10.90;;;;;;4964822;28;20484;-69
2023/10/30 08:12:54;;;;;;;5.90;3.80;;;18.10;10.50;;;;;;4963534;28;20474;-71
2023/10/30 08:15:20;;;;;;;5.93;4.27;;;18.50;9.60;;;;;;4968796;28;20489;-71
2023/10/30 08:17:47;;;;;;;6.33;4.50;;;18.80;8.80;;;;;;4967609;28;20469;-69
2023/10/30 08:20:14;;;;;;;5.70;3.90;;;18.80;8.60;;;;;;4970578;28;20453;-71
2023/10/30 08:22:41;;;;;;;6.70;4.70;;;18.70;8.60;;;;;;4969802;28;20535;-71
2023/10/30 08:25:08;;;;;;;5.90;4.47;;;18.60;8.70;;;;;;4968871;28;20477;-71
2023/10/30 08:27:36;;;;;;;8.43;4.70;;;18.30;8.90;;;;;;4965329;28;20453;-70
2023/10/30 08:30:05;;;;;;;6.57;4.43;;;18.20;9.40;;;;;;4972014;28;20513;-70
2023/10/30 08:32:32;;;;;;;6.10;3.90;;;18.90;9.30;;;;;;4974125;28;20533;-70
2023/10/30 08:35:02;;;;;;;6.87;5.17;;;19.60;7.80;;;;;;4972064;28;21017;-71
2023/10/30 08:37:29;;;;;;;6.63;4.60;;;19.80;7.60;;;;;;4966987;28;20469;-71
2023/10/30 08:39:55;;;;;;;5.47;4.43;;;20.20;6.30;;;;;;4969575;28;20457;-71
2023/10/30 08:42:22;;;;;;;6.40;4.50;;;20.20;6.10;;;;;;4961892;28;20467;-71
2023/10/30 08:44:50;;;;;;;7.63;4.50;;;20.20;5.80;;;;;;4967813;28;20548;-71
2023/10/30 08:47:17;;;;;;;5.77;4.20;;;20.00;5.90;;;;;;4964819;28;20453;-71
2023/10/30 08:49:43;;;;;;;8.40;5.73;;;20.00;6.40;;;;;;4960097;28;20458;-71
2023/10/30 08:52:10;;;;;;;8.50;5.13;;;20.10;6.20;;;;;;4958594;28;20593;-71
2023/10/30 08:54:37;;;;;;;8.70;4.87;;;20.30;6.30;;;;;;4966001;28;20523;-71
2023/10/30 08:57:04;;;;;;;6.97;5.43;;;20.40;5.70;;;;;;4965700;28;20470;-71
2023/10/30 08:59:30;;;;;;;7.00;5.70;;;20.30;5.60;;;;;;4964985;28;20936;-71
2023/10/30 09:01:58;;;;;;;7.07;5.33;;;20.00;6.00;;;;;;4962107;28;20481;-71
2023/10/30 09:04:25;;;;;;;6.50;5.63;;;19.60;6.50;;;;;;4964090;28;21005;-71
2023/10/30 09:06:52;;;;;;;7.40;5.77;;;19.40;7.00;;;;;;4968922;28;20465;-71
2023/10/30 09:09:18;;;;;;;7.07;5.70;;;19.30;7.60;;;;;;4967820;28;20957;-71
2023/10/30 09:11:45;;;;;;;7.33;5.70;;;19.30;7.70;;;;;;4967199;28;20493;-71
2023/10/30 09:14:12;;;;;;;6.90;5.90;;;19.20;7.60;;;;;;4966981;28;20497;-71
2023/10/30 09:16:38;;;;;;;7.50;6.13;;;19.00;8.00;;;;;;4969672;28;20978;-71
2023/10/30 09:19:07;;;;;;;7.97;5.50;;;18.70;8.60;;;;;;4965778;28;20461;-71
2023/10/30 09:21:33;;;;;;;8.53;5.80;;;18.70;9.20;;;;;;5015065;23;20491;-63
2023/10/30 09:24:00;;;;;;;8.23;6.07;;;19.00;9.10;;;;;;4998452;28;20471;-63
2023/10/30 09:26:27;;;;;;;7.47;5.90;;;19.20;8.90;;;;;;4989058;28;20468;-65
2023/10/30 09:28:54;;;;;;;10.20;6.13;;;19.30;8.60;;;;;;4980555;28;20949;-63
2023/10/30 09:31:21;;;;;;;8.67;6.63;;;19.70;8.30;;;;;;4985150;28;20495;-64
2023/10/30 09:33:48;;;;;;;7.27;6.13;;;20.50;7.30;;;;;;4986995;28;20472;-64
2023/10/30 09:36:16;;;;;;;6.67;5.50;;;21.20;5.60;;;;;;4987049;28;20965;-63
2023/10/30 09:38:43;;;;;;;8.30;4.93;;;21.70;4.60;;;;;;4988175;28;20484;-64
2023/10/30 09:41:12;;;;;;;7.77;5.67;;;22.00;3.70;;;;;;4986331;28;20471;-64
2023/10/30 09:43:39;;;;;;;6.90;5.13;;;22.00;3.30;;;;;;4983708;28;20532;-64
2023/10/30 09:46:07;;;;;;;6.90;5.50;;;21.90;3.20;;;;;;4981220;28;21033;-63
2023/10/30 09:48:34;;;;;;;6.33;5.10;;;21.80;3.20;;;;;;4982259;28;20551;-63
2023/10/30 09:51:03;;;;;;;6.00;4.60;;;21.40;3.70;;;;;;4987220;28;21262;-63
2023/10/30 09:53:32;;;;;;;10.60;5.20;;;21.10;4.50;;;;;;4987071;28;20457;-63
2023/10/30 09:56:00;;;;;;;7.00;4.87;;;20.80;5.00;;;;;;4985426;28;20491;-63
2023/10/30 09:58:27;;;;;;;7.87;5.80;;;20.50;5.60;;;;;;4986070;28;20475;-63
2023/10/30 10:00:53;;;;;;;7.90;4.80;;;20.30;6.20;;;;;;4981998;28;20477;-63
2023/10/30 10:03:21;;;;;;;8.37;4.77;;;20.10;6.40;;;;;;4986479;28;20484;-63
2023/10/30 10:05:58;;;;;;;6.30;4.33;;;19.80;6.80;;;;;;4987835;28;20484;-63
2023/10/30 10:08:27;;;;;;;8.03;4.83;;;19.50;7.60;;;;;;4982845;28;20933;-63
2023/10/30 10:10:56;;;;;;;7.27;5.07;;;19.30;8.30;;;;;;4986497;28;20481;-63
2023/10/30 10:13:23;;;;;;;6.20;4.53;;;19.10;8.80;;;;;;4984830;28;20521;-63
2023/10/30 10:15:50;;;;;;;7.80;5.30;;;18.90;9.40;;;;;;4983294;28;20492;-63
2023/10/30 10:18:24;;;;;;;7.67;5.50;;;18.70;9.90;;;;;;4984300;28;20587;-63
2023/10/30 10:21:00;;;;;;;7.60;5.00;;;18.50;10.60;;;;;;4981540;28;20526;-63
2023/10/30 10:23:30;;;;;;;6.57;4.73;;;18.40;10.90;;;;;;4984860;28;20456;-63
2023/10/30 10:25:59;;;;;;;5.90;4.67;;;18.30;11.30;;;;;;4983779;28;20572;-63
2023/10/30 10:28:27;;;;;;;7.53;4.80;;;18.10;11.60;;;;;;4984237;28;20469;-63
2023/10/30 10:30:54;;;;;;;8.90;4.70;;;18.00;11.90;;;;;;4985485;28;20480;-63
2023/10/30 10:33:22;;;;;;;7.30;4.90;;;17.90;12.40;;;;;;4980768;28;20476;-63
2023/10/30 10:35:53;;;;;;;6.63;5.10;;;17.80;12.60;;;;;;4984107;28;20985;-63
2023/10/30 10:38:21;;;;;;;7.40;4.80;;;17.80;13.20;;;;;;4981809;28;20466;-63
2023/10/30 10:40:48;;;;;;;8.10;4.93;;;17.80;13.40;;;;;;4983921;28;21000;-64
2023/10/30 10:43:19;;;;;;;6.83;4.90;;;17.70;13.60;;;;;;4982681;28;20468;-63
2023/10/30 10:45:47;;;;;;;6.93;4.63;;;17.70;13.60;;;;;;4984432;28;20473;-63
2023/10/30 10:48:14;;;;;;;6.70;4.20;;;17.70;13.80;;;;;;4986858;28;20587;-63
2023/10/30 10:50:41;;;;;;;6.93;4.27;;;17.70;13.80;;;;;;4987980;28;20472;-63
2023/10/30 10:53:08;;;;;;;5.70;3.77;;;17.60;13.80;;;;;;4987505;28;20469;-63
2023/10/30 10:55:40;;;;;;;9.13;4.37;;;17.50;14.00;;;;;;4988250;28;20491;-64
2023/10/30 10:58:12;;;;;;;6.77;3.87;;;17.40;14.10;;;;;;4986549;28;20543;-63
2023/10/30 11:00:47;;;;;;;5.60;3.60;;;17.30;14.60;;;;;;4991144;28;21176;-64
2023/10/30 11:03:13;;;;;;;7.20;4.60;;;17.30;14.80;;;;;;4989639;28;20464;-63
2023/10/30 11:05:41;;;;;;;7.90;4.23;;;17.10;15.00;;;;;;4989577;28;20491;-63
2023/10/30 11:08:29;;;;;;;5.77;3.70;;;17.10;15.40;;;;;;4988934;28;20460;-63
2023/10/30 11:11:04;;;;;;;5.63;3.80;;;17.00;15.70;;;;;;4989189;28;20484;-63
2023/10/30 11:13:40;;;;;;;7.77;4.67;;;16.90;15.90;;;;;;4983127;28;20475;-63
2023/10/30 11:16:14;;;;;;;7.30;4.50;;;16.90;16.30;;;;;;4987830;28;20491;-63
2023/10/30 11:18:42;;;;;;;7.30;4.20;;;16.70;16.50;;;;;;4987432;28;20469;-63
2023/10/30 11:21:11;;;;;;;6.50;4.17;;;16.70;16.80;;;;;;4988500;28;20483;-63
2023/10/30 11:23:49;;;;;;;6.37;3.70;;;16.60;16.90;;;;;;4988676;28;20457;-63
2023/10/30 11:26:40;;;;;;;5.40;3.40;;;16.50;17.00;;;;;;4989936;28;20456;-63
2023/10/30 11:29:10;;;;;;;5.50;3.43;;;16.40;17.30;;;;;;4983607;28;21009;-63
2023/10/30 11:31:59;;;;;;;6.53;4.20;;;16.30;17.60;;;;;;4985196;28;20477;-63
2023/10/30 11:34:31;;;;;;;6.50;4.40;;;16.30;17.90;;;;;;4979638;28;20907;-63
2023/10/30 11:37:03;;;;;;;6.00;3.90;;;16.30;17.90;;;;;;4989080;28;20460;-63
2023/10/30 11:39:33;;;;;;;5.93;3.90;;;16.30;18.10;;;;;;4982177;28;20489;-63
2023/10/30 11:42:00;;;;;;;7.20;4.00;;;16.30;18.20;;;;;;4985539;28;20990;-63
2023/10/30 11:44:30;;;;;;;5.80;3.83;;;16.20;18.10;;;;;;4988050;28;20488;-63
2023/10/30 11:46:59;;;;;;;6.73;3.90;;;16.20;18.30;;;;;;4985314;28;20465;-63
2023/10/30 11:49:32;;;;;;;5.97;3.70;;;16.20;18.40;;;;;;4985372;28;21001;-63
2023/10/30 11:51:59;;;;;;;6.63;3.53;;;16.10;18.40;;;;;;4986006;28;20484;-63
2023/10/30 11:54:32;;;;;;;6.27;3.80;;;16.10;18.40;;;;;;4988148;28;20480;-63
2023/10/30 11:56:59;;;;;;;5.53;3.03;;;16.10;18.50;;;;;;4985512;28;20468;-63
2023/10/30 11:59:27;;;;;;;5.57;4.00;;;16.00;18.50;;;;;;4980748;28;20884;-63
2023/10/30 12:01:55;;;;;;;6.87;3.80;;;16.00;18.70;;;;;;4987516;28;20468;-63
2023/10/30 12:04:24;;;;;;;5.57;3.33;;;16.00;18.60;;;;;;4983166;28;20488;-63
2023/10/30 12:06:51;;;;;;;6.37;3.40;;;16.00;18.70;;;;;;4989197;28;20504;-63
2023/10/30 12:09:18;;;;;;;7.07;3.97;;;16.00;18.90;;;;;;4987280;28;20452;-63
2023/10/30 12:11:45;;;;;;;5.97;3.43;;;16.10;18.80;;;;;;4982743;28;20495;-63
2023/10/30 12:14:12;;;;;;;6.90;3.53;;;16.20;18.80;;;;;;4986253;28;21227;-63
2023/10/30 12:16:47;;;;;;;7.90;4.20;;;16.20;18.80;;;;;;4986396;28;20464;-63
2023/10/30 12:19:13;;;;;;;6.70;3.47;;;16.30;18.80;;;;;;4978608;28;20488;-63
2023/10/30 12:21:42;;;;;;;5.80;3.93;;;16.30;18.60;;;;;;4985550;28;20933;-63
2023/10/30 12:24:09;;;;;;;6.30;3.93;;;16.40;18.40;;;;;;4983302;28;20543;-63
2023/10/30 12:26:40;;;;;;;10.43;3.60;;;16.50;18.30;;;;;;4987470;28;20467;-63
2023/10/30 12:29:07;;;;;;;6.93;4.23;;;16.50;18.00;;;;;;4989132;28;20824;-63
2023/10/30 12:31:34;;;;;;;6.27;3.60;;;16.50;18.00;;;;;;4987376;28;20495;-63
2023/10/30 12:34:08;;;;;;;6.50;3.20;;;16.50;17.90;;;;;;4986890;28;20547;-63
2023/10/30 12:36:35;;;;;;;6.47;3.80;;;16.50;17.90;;;;;;4982322;28;20466;-63
2023/10/30 12:39:14;;;;;;;6.10;3.57;;;16.50;17.80;;;;;;4987596;28;20457;-63
2023/10/30 12:41:40;;;;;;;10.50;4.20;;;16.50;17.90;;;;;;4987194;28;20475;-63
2023/10/30 12:44:07;;;;;;;6.20;3.30;;;16.60;17.80;;;;;;4985976;28;20841;-63
2023/10/30 12:46:34;;;;;;;5.43;3.00;;;16.60;17.80;;;;;;4981107;28;20516;-63